sensor_id;sensor_type;location;lat;lon;timestamp;P1;durP1;ratioP1;P2;durP2;ratioP2
6197;SDS011;3132;42.622;23.328;2023-04-25T00:00:56;10.63;;;10.03;;
6197;SDS011;3132;42.622;23.328;2023-04-25T00:03:21;11.23;;;10.53;;
6197;SDS011;3132;42.622;23.328;2023-04-25T00:05:47;11.83;;;11.13;;
6197;SDS011;3132;42.622;23.328;2023-04-25T00:08:12;10.90;;;10.20;;
6197;SDS011;3132;42.622;23.328;2023-04-25T00:10:38;10.73;;;10.13;;
6197;SDS011;3132;42.622;23.328;2023-04-25T00:13:03;10.57;;;9.97;;
6197;SDS011;3132;42.622;23.328;2023-04-25T00:15:29;10.13;;;9.40;;
6197;SDS011;3132;42.622;23.328;2023-04-25T00:17:57;10.20;;;9.70;;
6197;SDS011;3132;42.622;23.328;2023-04-25T00:20:23;9.47;;;8.90;;
6197;SDS011;3132;42.622;23.328;2023-04-25T00:22:49;9.03;;;8.63;;
6197;SDS011;3132;42.622;23.328;2023-04-25T00:25:15;8.90;;;8.50;;
6197;SDS011;3132;42.622;23.328;2023-04-25T00:27:41;8.67;;;8.27;;
6197;SDS011;3132;42.622;23.328;2023-04-25T00:30:07;8.90;;;8.50;;
6197;SDS011;3132;42.622;23.328;2023-04-25T00:32:32;8.93;;;8.53;;
6197;SDS011;3132;42.622;23.328;2023-04-25T00:34:58;7.47;;;7.20;;
6197;SDS011;3132;42.622;23.328;2023-04-25T00:37:24;8.27;;;7.97;;
6197;SDS011;3132;42.622;23.328;2023-04-25T00:39:50;7.63;;;7.37;;
6197;SDS011;3132;42.622;23.328;2023-04-25T00:42:15;8.57;;;8.27;;
6197;SDS011;3132;42.622;23.328;2023-04-25T00:44:41;8.27;;;7.93;;
6197;SDS011;3132;42.622;23.328;2023-04-25T00:47:08;9.37;;;8.87;;
6197;SDS011;3132;42.622;23.328;2023-04-25T00:49:33;11.43;;;10.80;;
6197;SDS011;3132;42.622;23.328;2023-04-25T00:51:59;12.63;;;11.80;;
6197;SDS011;3132;42.622;23.328;2023-04-25T00:54:25;12.60;;;11.60;;
6197;SDS011;3132;42.622;23.328;2023-04-25T00:56:50;12.63;;;11.60;;
6197;SDS011;3132;42.622;23.328;2023-04-25T00:59:18;13.27;;;12.27;;
6197;SDS011;3132;42.622;23.328;2023-04-25T01:01:45;12.33;;;11.53;;
6197;SDS011;3132;42.622;23.328;2023-04-25T01:04:10;12.23;;;11.33;;
6197;SDS011;3132;42.622;23.328;2023-04-25T01:06:36;11.70;;;10.93;;
6197;SDS011;3132;42.622;23.328;2023-04-25T01:09:01;10.93;;;10.23;;
6197;SDS011;3132;42.622;23.328;2023-04-25T01:11:27;10.13;;;9.33;;
6197;SDS011;3132;42.622;23.328;2023-04-25T01:13:53;9.87;;;9.27;;
6197;SDS011;3132;42.622;23.328;2023-04-25T01:16:18;10.23;;;9.63;;
6197;SDS011;3132;42.622;23.328;2023-04-25T01:18:44;9.90;;;9.40;;
6197;SDS011;3132;42.622;23.328;2023-04-25T01:21:11;10.37;;;9.67;;
6197;SDS011;3132;42.622;23.328;2023-04-25T01:23:38;9.50;;;9.00;;
6197;SDS011;3132;42.622;23.328;2023-04-25T01:26:05;9.53;;;8.93;;
6197;SDS011;3132;42.622;23.328;2023-04-25T01:28:32;11.23;;;10.30;;
6197;SDS011;3132;42.622;23.328;2023-04-25T01:30:58;10.77;;;9.97;;
6197;SDS011;3132;42.622;23.328;2023-04-25T01:33:24;10.30;;;9.70;;
6197;SDS011;3132;42.622;23.328;2023-04-25T01:35:50;10.03;;;9.33;;
6197;SDS011;3132;42.622;23.328;2023-04-25T01:38:15;9.80;;;9.03;;
6197;SDS011;3132;42.622;23.328;2023-04-25T01:40:41;11.10;;;10.40;;
6197;SDS011;3132;42.622;23.328;2023-04-25T01:43:07;12.00;;;11.10;;
6197;SDS011;3132;42.622;23.328;2023-04-25T01:45:36;12.27;;;11.27;;
6197;SDS011;3132;42.622;23.328;2023-04-25T01:48:05;14.70;;;13.50;;
6197;SDS011;3132;42.622;23.328;2023-04-25T01:50:30;15.43;;;13.97;;
6197;SDS011;3132;42.622;23.328;2023-04-25T01:52:56;16.83;;;13.97;;
6197;SDS011;3132;42.622;23.328;2023-04-25T01:55:22;14.90;;;13.63;;
6197;SDS011;3132;42.622;23.328;2023-04-25T01:57:47;17.13;;;15.57;;
6197;SDS011;3132;42.622;23.328;2023-04-25T02:00:12;17.47;;;15.77;;
6197;SDS011;3132;42.622;23.328;2023-04-25T02:02:38;16.60;;;14.83;;
6197;SDS011;3132;42.622;23.328;2023-04-25T02:05:04;17.03;;;15.60;;
6197;SDS011;3132;42.622;23.328;2023-04-25T02:07:29;19.53;;;17.33;;
6197;SDS011;3132;42.622;23.328;2023-04-25T02:09:55;18.23;;;16.53;;
6197;SDS011;3132;42.622;23.328;2023-04-25T02:12:20;17.20;;;15.43;;
6197;SDS011;3132;42.622;23.328;2023-04-25T02:14:46;16.00;;;14.40;;
6197;SDS011;3132;42.622;23.328;2023-04-25T02:17:11;18.23;;;16.43;;
6197;SDS011;3132;42.622;23.328;2023-04-25T02:19:37;19.73;;;17.47;;
6197;SDS011;3132;42.622;23.328;2023-04-25T02:22:03;18.50;;;16.50;;
6197;SDS011;3132;42.622;23.328;2023-04-25T02:24:28;18.10;;;16.37;;
6197;SDS011;3132;42.622;23.328;2023-04-25T02:26:54;17.83;;;16.23;;
6197;SDS011;3132;42.622;23.328;2023-04-25T02:29:21;19.43;;;17.47;;
6197;SDS011;3132;42.622;23.328;2023-04-25T02:31:46;19.30;;;17.17;;
6197;SDS011;3132;42.622;23.328;2023-04-25T02:34:11;17.40;;;15.77;;
6197;SDS011;3132;42.622;23.328;2023-04-25T02:36:37;18.67;;;16.70;;
6197;SDS011;3132;42.622;23.328;2023-04-25T02:39:02;19.07;;;17.20;;
6197;SDS011;3132;42.622;23.328;2023-04-25T02:41:28;16.43;;;14.77;;
6197;SDS011;3132;42.622;23.328;2023-04-25T02:43:53;16.17;;;14.77;;
6197;SDS011;3132;42.622;23.328;2023-04-25T02:46:19;22.77;;;16.37;;
6197;SDS011;3132;42.622;23.328;2023-04-25T02:48:45;16.07;;;14.67;;
6197;SDS011;3132;42.622;23.328;2023-04-25T02:51:10;15.90;;;14.40;;
6197;SDS011;3132;42.622;23.328;2023-04-25T02:53:35;13.67;;;12.60;;
6197;SDS011;3132;42.622;23.328;2023-04-25T02:56:01;13.77;;;12.57;;
6197;SDS011;3132;42.622;23.328;2023-04-25T02:58:26;14.53;;;13.23;;
6197;SDS011;3132;42.622;23.328;2023-04-25T03:00:52;21.43;;;19.80;;
6197;SDS011;3132;42.622;23.328;2023-04-25T03:03:17;14.80;;;13.60;;
6197;SDS011;3132;42.622;23.328;2023-04-25T03:05:48;13.10;;;12.17;;
6197;SDS011;3132;42.622;23.328;2023-04-25T03:08:15;14.30;;;13.23;;
6197;SDS011;3132;42.622;23.328;2023-04-25T03:10:40;13.83;;;12.80;;
6197;SDS011;3132;42.622;23.328;2023-04-25T03:13:06;13.40;;;12.40;;
6197;SDS011;3132;42.622;23.328;2023-04-25T03:15:31;13.87;;;12.87;;
6197;SDS011;3132;42.622;23.328;2023-04-25T03:17:57;13.77;;;12.83;;
6197;SDS011;3132;42.622;23.328;2023-04-25T03:20:22;13.57;;;12.57;;
6197;SDS011;3132;42.622;23.328;2023-04-25T03:22:47;15.70;;;14.37;;
6197;SDS011;3132;42.622;23.328;2023-04-25T03:25:13;16.00;;;14.37;;
6197;SDS011;3132;42.622;23.328;2023-04-25T03:27:38;15.73;;;14.43;;
6197;SDS011;3132;42.622;23.328;2023-04-25T03:30:04;16.10;;;14.70;;
6197;SDS011;3132;42.622;23.328;2023-04-25T03:32:30;14.83;;;13.53;;
6197;SDS011;3132;42.622;23.328;2023-04-25T03:34:55;15.83;;;14.30;;
6197;SDS011;3132;42.622;23.328;2023-04-25T03:37:20;15.07;;;13.77;;
6197;SDS011;3132;42.622;23.328;2023-04-25T03:39:46;15.90;;;14.47;;
6197;SDS011;3132;42.622;23.328;2023-04-25T03:42:11;14.87;;;13.37;;
6197;SDS011;3132;42.622;23.328;2023-04-25T03:44:37;16.10;;;14.70;;
6197;SDS011;3132;42.622;23.328;2023-04-25T03:47:02;17.17;;;15.47;;
6197;SDS011;3132;42.622;23.328;2023-04-25T03:49:27;17.37;;;15.60;;
6197;SDS011;3132;42.622;23.328;2023-04-25T03:51:53;14.97;;;13.77;;
6197;SDS011;3132;42.622;23.328;2023-04-25T03:54:18;14.47;;;13.37;;
6197;SDS011;3132;42.622;23.328;2023-04-25T03:56:44;13.77;;;12.77;;
6197;SDS011;3132;42.622;23.328;2023-04-25T03:59:09;13.40;;;12.50;;
6197;SDS011;3132;42.622;23.328;2023-04-25T04:01:34;14.53;;;13.53;;
6197;SDS011;3132;42.622;23.328;2023-04-25T04:04:00;12.27;;;11.47;;
6197;SDS011;3132;42.622;23.328;2023-04-25T04:06:26;11.53;;;10.83;;
6197;SDS011;3132;42.622;23.328;2023-04-25T04:08:51;11.30;;;10.43;;
6197;SDS011;3132;42.622;23.328;2023-04-25T04:11:17;9.90;;;9.40;;
6197;SDS011;3132;42.622;23.328;2023-04-25T04:13:42;10.17;;;9.67;;
6197;SDS011;3132;42.622;23.328;2023-04-25T04:16:07;10.43;;;9.83;;
6197;SDS011;3132;42.622;23.328;2023-04-25T04:18:33;13.10;;;12.20;;
6197;SDS011;3132;42.622;23.328;2023-04-25T04:20:59;12.53;;;11.43;;
6197;SDS011;3132;42.622;23.328;2023-04-25T04:23:24;13.87;;;12.87;;
6197;SDS011;3132;42.622;23.328;2023-04-25T04:25:52;14.07;;;12.77;;
6197;SDS011;3132;42.622;23.328;2023-04-25T04:28:18;12.87;;;11.83;;
6197;SDS011;3132;42.622;23.328;2023-04-25T04:30:44;10.07;;;9.47;;
6197;SDS011;3132;42.622;23.328;2023-04-25T04:33:12;9.10;;;8.70;;
6197;SDS011;3132;42.622;23.328;2023-04-25T04:35:37;9.03;;;8.63;;
6197;SDS011;3132;42.622;23.328;2023-04-25T04:38:03;15.10;;;13.73;;
6197;SDS011;3132;42.622;23.328;2023-04-25T04:40:28;16.13;;;14.80;;
6197;SDS011;3132;42.622;23.328;2023-04-25T04:42:56;15.90;;;14.40;;
6197;SDS011;3132;42.622;23.328;2023-04-25T04:45:22;16.47;;;15.10;;
6197;SDS011;3132;42.622;23.328;2023-04-25T04:47:48;16.10;;;14.63;;
6197;SDS011;3132;42.622;23.328;2023-04-25T04:50:14;16.10;;;14.77;;
6197;SDS011;3132;42.622;23.328;2023-04-25T04:52:41;16.37;;;14.73;;
6197;SDS011;3132;42.622;23.328;2023-04-25T04:55:07;16.60;;;15.03;;
6197;SDS011;3132;42.622;23.328;2023-04-25T04:57:33;16.30;;;14.73;;
6197;SDS011;3132;42.622;23.328;2023-04-25T04:59:59;16.27;;;14.87;;
6197;SDS011;3132;42.622;23.328;2023-04-25T05:02:25;17.67;;;16.03;;
6197;SDS011;3132;42.622;23.328;2023-04-25T05:04:51;17.47;;;15.77;;
6197;SDS011;3132;42.622;23.328;2023-04-25T05:07:17;19.23;;;17.23;;
6197;SDS011;3132;42.622;23.328;2023-04-25T05:09:43;18.47;;;16.67;;
6197;SDS011;3132;42.622;23.328;2023-04-25T05:12:09;19.97;;;17.83;;
6197;SDS011;3132;42.622;23.328;2023-04-25T05:14:34;22.57;;;18.60;;
6197;SDS011;3132;42.622;23.328;2023-04-25T05:17:00;20.50;;;18.40;;
6197;SDS011;3132;42.622;23.328;2023-04-25T05:19:25;22.23;;;19.97;;
6197;SDS011;3132;42.622;23.328;2023-04-25T05:21:51;20.53;;;18.30;;
6197;SDS011;3132;42.622;23.328;2023-04-25T05:24:16;21.40;;;18.80;;
6197;SDS011;3132;42.622;23.328;2023-04-25T05:26:42;21.33;;;18.60;;
6197;SDS011;3132;42.622;23.328;2023-04-25T05:29:07;20.70;;;18.53;;
6197;SDS011;3132;42.622;23.328;2023-04-25T05:31:34;20.07;;;18.17;;
6197;SDS011;3132;42.622;23.328;2023-04-25T05:34:01;18.17;;;16.37;;
6197;SDS011;3132;42.622;23.328;2023-04-25T05:36:26;17.47;;;15.83;;
6197;SDS011;3132;42.622;23.328;2023-04-25T05:38:52;17.47;;;16.03;;
6197;SDS011;3132;42.622;23.328;2023-04-25T05:41:17;15.17;;;13.57;;
6197;SDS011;3132;42.622;23.328;2023-04-25T05:43:43;17.00;;;15.50;;
6197;SDS011;3132;42.622;23.328;2023-04-25T05:46:11;16.90;;;15.17;;
6197;SDS011;3132;42.622;23.328;2023-04-25T05:48:37;16.10;;;14.70;;
6197;SDS011;3132;42.622;23.328;2023-04-25T05:51:03;14.03;;;12.93;;
6197;SDS011;3132;42.622;23.328;2023-04-25T05:53:28;14.57;;;13.37;;
6197;SDS011;3132;42.622;23.328;2023-04-25T05:55:54;14.80;;;13.43;;
6197;SDS011;3132;42.622;23.328;2023-04-25T05:58:20;14.87;;;13.67;;
6197;SDS011;3132;42.622;23.328;2023-04-25T06:00:45;13.70;;;12.70;;
6197;SDS011;3132;42.622;23.328;2023-04-25T06:03:11;14.47;;;13.27;;
6197;SDS011;3132;42.622;23.328;2023-04-25T06:05:38;14.93;;;13.43;;
6197;SDS011;3132;42.622;23.328;2023-04-25T06:08:03;13.93;;;12.77;;
6197;SDS011;3132;42.622;23.328;2023-04-25T06:10:29;15.27;;;14.03;;
6197;SDS011;3132;42.622;23.328;2023-04-25T06:12:55;18.90;;;17.20;;
6197;SDS011;3132;42.622;23.328;2023-04-25T06:15:20;19.50;;;17.30;;
6197;SDS011;3132;42.622;23.328;2023-04-25T06:17:45;19.67;;;17.87;;
6197;SDS011;3132;42.622;23.328;2023-04-25T06:20:11;17.90;;;16.20;;
6197;SDS011;3132;42.622;23.328;2023-04-25T06:22:36;20.17;;;18.20;;
6197;SDS011;3132;42.622;23.328;2023-04-25T06:25:02;20.17;;;18.30;;
6197;SDS011;3132;42.622;23.328;2023-04-25T06:27:29;21.30;;;19.27;;
6197;SDS011;3132;42.622;23.328;2023-04-25T06:29:54;22.93;;;20.53;;
6197;SDS011;3132;42.622;23.328;2023-04-25T06:32:20;25.10;;;21.00;;
6197;SDS011;3132;42.622;23.328;2023-04-25T06:34:46;25.33;;;20.90;;
6197;SDS011;3132;42.622;23.328;2023-04-25T06:37:11;22.07;;;19.77;;
6197;SDS011;3132;42.622;23.328;2023-04-25T06:39:36;22.63;;;20.43;;
6197;SDS011;3132;42.622;23.328;2023-04-25T06:42:02;20.70;;;18.67;;
6197;SDS011;3132;42.622;23.328;2023-04-25T06:44:27;18.57;;;16.87;;
6197;SDS011;3132;42.622;23.328;2023-04-25T06:46:54;13.90;;;12.80;;
6197;SDS011;3132;42.622;23.328;2023-04-25T06:49:19;18.77;;;17.20;;
6197;SDS011;3132;42.622;23.328;2023-04-25T06:51:45;13.23;;;12.43;;
6197;SDS011;3132;42.622;23.328;2023-04-25T06:54:10;10.60;;;9.90;;
6197;SDS011;3132;42.622;23.328;2023-04-25T06:56:36;13.97;;;12.97;;
6197;SDS011;3132;42.622;23.328;2023-04-25T06:59:01;13.20;;;12.30;;
6197;SDS011;3132;42.622;23.328;2023-04-25T07:01:26;13.03;;;12.23;;
6197;SDS011;3132;42.622;23.328;2023-04-25T07:03:52;12.77;;;11.77;;
6197;SDS011;3132;42.622;23.328;2023-04-25T07:06:17;13.47;;;12.57;;
6197;SDS011;3132;42.622;23.328;2023-04-25T07:08:42;12.87;;;11.87;;
6197;SDS011;3132;42.622;23.328;2023-04-25T07:11:08;13.03;;;12.13;;
6197;SDS011;3132;42.622;23.328;2023-04-25T07:13:34;13.33;;;12.43;;
6197;SDS011;3132;42.622;23.328;2023-04-25T07:15:59;12.93;;;11.93;;
6197;SDS011;3132;42.622;23.328;2023-04-25T07:18:25;12.03;;;11.13;;
6197;SDS011;3132;42.622;23.328;2023-04-25T07:20:50;14.33;;;12.93;;
6197;SDS011;3132;42.622;23.328;2023-04-25T07:23:15;13.27;;;12.17;;
6197;SDS011;3132;42.622;23.328;2023-04-25T07:25:41;14.70;;;13.40;;
6197;SDS011;3132;42.622;23.328;2023-04-25T07:28:06;14.23;;;13.07;;
6197;SDS011;3132;42.622;23.328;2023-04-25T07:30:31;15.40;;;13.53;;
6197;SDS011;3132;42.622;23.328;2023-04-25T07:32:57;14.07;;;13.00;;
6197;SDS011;3132;42.622;23.328;2023-04-25T07:35:22;15.70;;;14.43;;
6197;SDS011;3132;42.622;23.328;2023-04-25T07:37:48;15.47;;;13.97;;
6197;SDS011;3132;42.622;23.328;2023-04-25T07:40:13;16.10;;;14.80;;
6197;SDS011;3132;42.622;23.328;2023-04-25T07:42:41;15.33;;;13.73;;
6197;SDS011;3132;42.622;23.328;2023-04-25T07:45:07;15.30;;;14.00;;
6197;SDS011;3132;42.622;23.328;2023-04-25T07:47:32;16.07;;;14.10;;
6197;SDS011;3132;42.622;23.328;2023-04-25T07:49:58;15.10;;;13.70;;
6197;SDS011;3132;42.622;23.328;2023-04-25T07:52:23;14.77;;;13.53;;
6197;SDS011;3132;42.622;23.328;2023-04-25T07:54:49;15.27;;;13.73;;
6197;SDS011;3132;42.622;23.328;2023-04-25T07:57:14;14.80;;;13.07;;
6197;SDS011;3132;42.622;23.328;2023-04-25T07:59:39;14.80;;;13.40;;
6197;SDS011;3132;42.622;23.328;2023-04-25T08:02:05;14.20;;;13.07;;
6197;SDS011;3132;42.622;23.328;2023-04-25T08:04:30;13.83;;;12.57;;
6197;SDS011;3132;42.622;23.328;2023-04-25T08:06:56;14.03;;;12.93;;
6197;SDS011;3132;42.622;23.328;2023-04-25T08:09:21;16.87;;;12.87;;
6197;SDS011;3132;42.622;23.328;2023-04-25T08:11:47;13.37;;;12.27;;
6197;SDS011;3132;42.622;23.328;2023-04-25T08:14:13;14.50;;;13.13;;
6197;SDS011;3132;42.622;23.328;2023-04-25T08:16:39;14.50;;;13.10;;
6197;SDS011;3132;42.622;23.328;2023-04-25T08:19:04;13.90;;;12.70;;
6197;SDS011;3132;42.622;23.328;2023-04-25T08:21:30;13.77;;;12.57;;
6197;SDS011;3132;42.622;23.328;2023-04-25T08:23:56;13.23;;;12.13;;
6197;SDS011;3132;42.622;23.328;2023-04-25T08:26:23;12.77;;;11.77;;
6197;SDS011;3132;42.622;23.328;2023-04-25T08:28:49;12.40;;;11.50;;
6197;SDS011;3132;42.622;23.328;2023-04-25T08:31:14;13.20;;;12.00;;
6197;SDS011;3132;42.622;23.328;2023-04-25T08:33:40;12.40;;;11.60;;
6197;SDS011;3132;42.622;23.328;2023-04-25T08:36:05;11.70;;;10.80;;
6197;SDS011;3132;42.622;23.328;2023-04-25T08:38:31;11.00;;;10.37;;
6197;SDS011;3132;42.622;23.328;2023-04-25T08:40:56;10.30;;;9.70;;
6197;SDS011;3132;42.622;23.328;2023-04-25T08:43:24;9.60;;;8.90;;
6197;SDS011;3132;42.622;23.328;2023-04-25T08:45:50;9.97;;;9.07;;
6197;SDS011;3132;42.622;23.328;2023-04-25T08:48:19;9.57;;;9.07;;
6197;SDS011;3132;42.622;23.328;2023-04-25T08:50:53;9.67;;;9.17;;
6197;SDS011;3132;42.622;23.328;2023-04-25T08:53:31;10.33;;;9.57;;
6197;SDS011;3132;42.622;23.328;2023-04-25T08:55:58;9.43;;;8.77;;
6197;SDS011;3132;42.622;23.328;2023-04-25T08:58:24;10.13;;;9.37;;
6197;SDS011;3132;42.622;23.328;2023-04-25T09:00:50;9.97;;;9.20;;
6197;SDS011;3132;42.622;23.328;2023-04-25T09:03:16;9.77;;;9.07;;
6197;SDS011;3132;42.622;23.328;2023-04-25T09:05:43;15.63;;;10.47;;
6197;SDS011;3132;42.622;23.328;2023-04-25T09:08:08;10.70;;;9.77;;
6197;SDS011;3132;42.622;23.328;2023-04-25T09:10:34;10.10;;;9.50;;
6197;SDS011;3132;42.622;23.328;2023-04-25T09:13:04;9.70;;;9.00;;
6197;SDS011;3132;42.622;23.328;2023-04-25T09:15:49;11.30;;;10.50;;
6197;SDS011;3132;42.622;23.328;2023-04-25T09:18:26;10.97;;;10.03;;
6197;SDS011;3132;42.622;23.328;2023-04-25T09:20:55;11.77;;;10.63;;
6197;SDS011;3132;42.622;23.328;2023-04-25T09:23:23;12.57;;;11.37;;
6197;SDS011;3132;42.622;23.328;2023-04-25T09:25:50;11.63;;;10.83;;
6197;SDS011;3132;42.622;23.328;2023-04-25T09:28:22;11.07;;;10.37;;
6197;SDS011;3132;42.622;23.328;2023-04-25T09:30:56;11.67;;;10.77;;
6197;SDS011;3132;42.622;23.328;2023-04-25T09:33:28;12.17;;;11.17;;
6197;SDS011;3132;42.622;23.328;2023-04-25T09:36:00;13.27;;;12.10;;
6197;SDS011;3132;42.622;23.328;2023-04-25T09:38:31;13.60;;;12.50;;
6197;SDS011;3132;42.622;23.328;2023-04-25T09:40:57;16.77;;;11.70;;
6197;SDS011;3132;42.622;23.328;2023-04-25T09:43:23;13.53;;;12.27;;
6197;SDS011;3132;42.622;23.328;2023-04-25T09:45:49;12.77;;;11.87;;
6197;SDS011;3132;42.622;23.328;2023-04-25T09:48:24;13.80;;;12.60;;
6197;SDS011;3132;42.622;23.328;2023-04-25T09:53:28;11.20;;;10.17;;
6197;SDS011;3132;42.622;23.328;2023-04-25T09:55:53;11.03;;;10.43;;
6197;SDS011;3132;42.622;23.328;2023-04-25T09:58:20;10.13;;;9.50;;
6197;SDS011;3132;42.622;23.328;2023-04-25T10:00:46;10.43;;;9.73;;
6197;SDS011;3132;42.622;23.328;2023-04-25T10:03:13;10.00;;;9.30;;
6197;SDS011;3132;42.622;23.328;2023-04-25T10:05:40;8.37;;;7.97;;
6197;SDS011;3132;42.622;23.328;2023-04-25T10:08:06;10.13;;;9.30;;
6197;SDS011;3132;42.622;23.328;2023-04-25T10:10:33;9.10;;;8.50;;
6197;SDS011;3132;42.622;23.328;2023-04-25T10:13:02;10.43;;;9.63;;
6197;SDS011;3132;42.622;23.328;2023-04-25T10:15:29;9.67;;;8.97;;
6197;SDS011;3132;42.622;23.328;2023-04-25T10:17:55;8.73;;;8.37;;
6197;SDS011;3132;42.622;23.328;2023-04-25T10:20:22;8.33;;;7.87;;
6197;SDS011;3132;42.622;23.328;2023-04-25T10:22:47;8.43;;;8.03;;
6197;SDS011;3132;42.622;23.328;2023-04-25T10:25:13;9.23;;;8.83;;
6197;SDS011;3132;42.622;23.328;2023-04-25T10:27:39;7.97;;;7.63;;
6197;SDS011;3132;42.622;23.328;2023-04-25T10:30:10;8.07;;;7.77;;
6197;SDS011;3132;42.622;23.328;2023-04-25T10:32:39;7.47;;;7.07;;
6197;SDS011;3132;42.622;23.328;2023-04-25T10:35:10;7.57;;;7.27;;
6197;SDS011;3132;42.622;23.328;2023-04-25T10:37:36;8.17;;;7.87;;
6197;SDS011;3132;42.622;23.328;2023-04-25T10:40:08;7.77;;;7.30;;
6197;SDS011;3132;42.622;23.328;2023-04-25T10:42:34;8.10;;;7.70;;
6197;SDS011;3132;42.622;23.328;2023-04-25T10:45:01;8.30;;;8.00;;
6197;SDS011;3132;42.622;23.328;2023-04-25T10:47:43;7.87;;;7.57;;
6197;SDS011;3132;42.622;23.328;2023-04-25T10:50:10;7.87;;;7.57;;
6197;SDS011;3132;42.622;23.328;2023-04-25T10:52:36;7.90;;;7.60;;
6197;SDS011;3132;42.622;23.328;2023-04-25T10:55:04;7.37;;;7.07;;
6197;SDS011;3132;42.622;23.328;2023-04-25T11:02:32;8.53;;;8.00;;
6197;SDS011;3132;42.622;23.328;2023-04-25T11:05:02;7.97;;;7.67;;
6197;SDS011;3132;42.622;23.328;2023-04-25T11:10:03;9.03;;;8.33;;
6197;SDS011;3132;42.622;23.328;2023-04-25T11:12:29;8.10;;;7.80;;
6197;SDS011;3132;42.622;23.328;2023-04-25T11:15:00;8.30;;;7.70;;
6197;SDS011;3132;42.622;23.328;2023-04-25T11:17:27;7.93;;;7.63;;
6197;SDS011;3132;42.622;23.328;2023-04-25T11:19:53;8.10;;;7.80;;
6197;SDS011;3132;42.622;23.328;2023-04-25T11:22:18;8.13;;;7.63;;
6197;SDS011;3132;42.622;23.328;2023-04-25T11:24:46;8.10;;;7.80;;
6197;SDS011;3132;42.622;23.328;2023-04-25T11:27:12;8.10;;;7.80;;
6197;SDS011;3132;42.622;23.328;2023-04-25T11:29:37;7.93;;;7.53;;
6197;SDS011;3132;42.622;23.328;2023-04-25T11:32:02;7.60;;;7.30;;
6197;SDS011;3132;42.622;23.328;2023-04-25T11:34:28;7.70;;;7.30;;
6197;SDS011;3132;42.622;23.328;2023-04-25T11:36:56;7.87;;;7.57;;
6197;SDS011;3132;42.622;23.328;2023-04-25T11:39:21;7.93;;;7.63;;
6197;SDS011;3132;42.622;23.328;2023-04-25T11:41:49;9.17;;;8.77;;
6197;SDS011;3132;42.622;23.328;2023-04-25T11:44:15;7.53;;;7.23;;
6197;SDS011;3132;42.622;23.328;2023-04-25T11:46:42;8.63;;;8.03;;
6197;SDS011;3132;42.622;23.328;2023-04-25T11:49:08;7.90;;;7.27;;
6197;SDS011;3132;42.622;23.328;2023-04-25T11:54:08;7.93;;;7.53;;
6197;SDS011;3132;42.622;23.328;2023-04-25T11:56:34;8.87;;;8.40;;
6197;SDS011;3132;42.622;23.328;2023-04-25T11:59:00;9.13;;;8.60;;
6197;SDS011;3132;42.622;23.328;2023-04-25T12:01:35;8.80;;;8.47;;
6197;SDS011;3132;42.622;23.328;2023-04-25T12:06:45;9.03;;;8.53;;
6197;SDS011;3132;42.622;23.328;2023-04-25T12:09:13;9.20;;;8.80;;
6197;SDS011;3132;42.622;23.328;2023-04-25T12:11:41;9.07;;;8.70;;
6197;SDS011;3132;42.622;23.328;2023-04-25T12:14:08;9.40;;;9.00;;
6197;SDS011;3132;42.622;23.328;2023-04-25T12:16:40;9.03;;;8.53;;
6197;SDS011;3132;42.622;23.328;2023-04-25T12:19:06;9.13;;;8.53;;
6197;SDS011;3132;42.622;23.328;2023-04-25T12:21:32;7.93;;;7.63;;
6197;SDS011;3132;42.622;23.328;2023-04-25T12:24:09;7.93;;;7.63;;
6197;SDS011;3132;42.622;23.328;2023-04-25T12:26:45;7.47;;;7.20;;
6197;SDS011;3132;42.622;23.328;2023-04-25T12:29:22;8.40;;;8.00;;
6197;SDS011;3132;42.622;23.328;2023-04-25T12:31:49;8.57;;;8.17;;
6197;SDS011;3132;42.622;23.328;2023-04-25T12:34:16;10.27;;;9.87;;
6197;SDS011;3132;42.622;23.328;2023-04-25T12:36:42;8.17;;;7.73;;
6197;SDS011;3132;42.622;23.328;2023-04-25T12:39:08;8.10;;;7.80;;
6197;SDS011;3132;42.622;23.328;2023-04-25T12:41:33;9.00;;;8.60;;
6197;SDS011;3132;42.622;23.328;2023-04-25T12:43:59;7.33;;;7.03;;
6197;SDS011;3132;42.622;23.328;2023-04-25T12:46:24;8.13;;;7.63;;
6197;SDS011;3132;42.622;23.328;2023-04-25T12:48:50;7.87;;;7.57;;
6197;SDS011;3132;42.622;23.328;2023-04-25T12:51:15;8.23;;;7.73;;
6197;SDS011;3132;42.622;23.328;2023-04-25T12:53:40;8.67;;;8.27;;
6197;SDS011;3132;42.622;23.328;2023-04-25T12:56:06;8.30;;;8.00;;
6197;SDS011;3132;42.622;23.328;2023-04-25T12:58:35;8.20;;;7.90;;
6197;SDS011;3132;42.622;23.328;2023-04-25T13:01:00;8.17;;;7.77;;
6197;SDS011;3132;42.622;23.328;2023-04-25T13:03:26;7.63;;;7.33;;
6197;SDS011;3132;42.622;23.328;2023-04-25T13:05:51;7.87;;;7.57;;
6197;SDS011;3132;42.622;23.328;2023-04-25T13:08:20;8.10;;;7.80;;
6197;SDS011;3132;42.622;23.328;2023-04-25T13:10:45;8.50;;;8.10;;
6197;SDS011;3132;42.622;23.328;2023-04-25T13:13:12;8.03;;;7.53;;
6197;SDS011;3132;42.622;23.328;2023-04-25T13:15:38;8.93;;;8.50;;
6197;SDS011;3132;42.622;23.328;2023-04-25T13:18:03;8.87;;;8.47;;
6197;SDS011;3132;42.622;23.328;2023-04-25T13:20:30;8.20;;;7.87;;
6197;SDS011;3132;42.622;23.328;2023-04-25T13:22:56;9.27;;;8.73;;
6197;SDS011;3132;42.622;23.328;2023-04-25T13:25:22;8.87;;;8.40;;
6197;SDS011;3132;42.622;23.328;2023-04-25T13:27:47;8.07;;;7.70;;
6197;SDS011;3132;42.622;23.328;2023-04-25T13:30:13;9.50;;;8.90;;
6197;SDS011;3132;42.622;23.328;2023-04-25T13:32:38;9.70;;;9.17;;
6197;SDS011;3132;42.622;23.328;2023-04-25T13:35:06;8.77;;;8.47;;
6197;SDS011;3132;42.622;23.328;2023-04-25T13:37:36;8.97;;;8.60;;
6197;SDS011;3132;42.622;23.328;2023-04-25T13:40:03;8.20;;;7.80;;
6197;SDS011;3132;42.622;23.328;2023-04-25T13:42:30;8.67;;;8.37;;
6197;SDS011;3132;42.622;23.328;2023-04-25T13:44:56;9.63;;;9.23;;
6197;SDS011;3132;42.622;23.328;2023-04-25T13:47:22;9.50;;;9.10;;
6197;SDS011;3132;42.622;23.328;2023-04-25T13:49:48;9.80;;;9.37;;
6197;SDS011;3132;42.622;23.328;2023-04-25T13:52:14;8.97;;;8.47;;
6197;SDS011;3132;42.622;23.328;2023-04-25T13:54:39;9.37;;;8.90;;
6197;SDS011;3132;42.622;23.328;2023-04-25T13:57:05;8.70;;;8.37;;
6197;SDS011;3132;42.622;23.328;2023-04-25T13:59:31;9.33;;;8.83;;
6197;SDS011;3132;42.622;23.328;2023-04-25T14:01:57;10.07;;;9.37;;
6197;SDS011;3132;42.622;23.328;2023-04-25T14:04:23;9.60;;;9.10;;
6197;SDS011;3132;42.622;23.328;2023-04-25T14:06:48;8.23;;;7.93;;
6197;SDS011;3132;42.622;23.328;2023-04-25T14:09:14;7.30;;;7.00;;
6197;SDS011;3132;42.622;23.328;2023-04-25T14:11:40;8.90;;;8.50;;
6197;SDS011;3132;42.622;23.328;2023-04-25T14:14:06;6.97;;;6.77;;
6197;SDS011;3132;42.622;23.328;2023-04-25T14:16:31;7.57;;;7.37;;
6197;SDS011;3132;42.622;23.328;2023-04-25T14:18:59;6.67;;;6.47;;
6197;SDS011;3132;42.622;23.328;2023-04-25T14:21:26;7.00;;;6.73;;
6197;SDS011;3132;42.622;23.328;2023-04-25T14:23:53;7.70;;;7.40;;
6197;SDS011;3132;42.622;23.328;2023-04-25T14:26:19;7.40;;;7.10;;
6197;SDS011;3132;42.622;23.328;2023-04-25T14:28:44;8.30;;;7.90;;
6197;SDS011;3132;42.622;23.328;2023-04-25T14:31:10;8.03;;;7.70;;
6197;SDS011;3132;42.622;23.328;2023-04-25T14:33:35;8.33;;;7.93;;
6197;SDS011;3132;42.622;23.328;2023-04-25T14:36:02;13.80;;;12.97;;
6197;SDS011;3132;42.622;23.328;2023-04-25T14:38:28;9.10;;;8.60;;
6197;SDS011;3132;42.622;23.328;2023-04-25T14:40:53;8.00;;;7.70;;
6197;SDS011;3132;42.622;23.328;2023-04-25T14:43:19;8.00;;;7.70;;
6197;SDS011;3132;42.622;23.328;2023-04-25T14:45:44;8.00;;;7.70;;
6197;SDS011;3132;42.622;23.328;2023-04-25T14:48:10;7.83;;;7.53;;
6197;SDS011;3132;42.622;23.328;2023-04-25T14:50:36;8.80;;;8.40;;
6197;SDS011;3132;42.622;23.328;2023-04-25T14:53:01;9.23;;;8.63;;
6197;SDS011;3132;42.622;23.328;2023-04-25T14:55:27;9.67;;;9.17;;